Terminal Aerodrome Forecast
Issued by NWS Quad Cities IA IL

Home | Current Version | Previous Version | Text Only | Print | Product List | Glossary On
Versions: 1 2 3 4 5 6 7 8 9 10 11 12 13 14 15 16 17
032
FTUS43 KDVN 140534
TAFMLI
TAF
KMLI 140534Z 1406/1506 11009KT P6SM OVC070
     FM140900 13013KT 4SM -SN BR OVC035
      TEMPO 1410/1414 1 1/2SM -SN BR OVC015
     FM141400 14015G22KT 3/4SM -SN BR OVC010
     FM141800 15012KT 2SM -SN BR OVC015
     FM142100 13007KT 5SM -SN BR OVC020
     FM150000 15006KT 6SM BR OVC015=

USA.gov is the U.S. government's official web portal to all federal, state and local government web resources and services.